Time;durP1;ratioP1;P1;durP2;ratioP2;P2;SDS_P1;SDS_P2;PMS_P1;PMS_P2;Temp;Humidity;BMP_temperature;BMP_pressure;BME280_temperature;BME280_humidity;BME280_pressure;Samples;Min_cycle;Max_cycle;Signal;HPM_P1;HPM_P2
2022/04/18 00:02:24;;;;;;;0.30;0.30;;;;;;;-0.93;43.11;99077.22;5091534;28;20028;-63
2022/04/18 00:04:50;;;;;;;0.43;0.43;;;;;;;-0.96;43.36;99076.66;5090641;28;20032;-61
2022/04/18 00:07:17;;;;;;;0.20;0.20;;;;;;;-1.00;43.52;99072.56;5091041;28;20085;-60
2022/04/18 00:09:42;;;;;;;0.30;0.30;;;;;;;-1.01;43.49;99076.28;5106788;28;20481;-60
2022/04/18 00:12:08;;;;;;;0.30;0.30;;;;;;;-1.01;43.38;99076.28;5091167;28;20135;-60
2022/04/18 00:14:34;;;;;;;0.20;0.20;;;;;;;-1.03;43.52;99071.06;5091132;28;20036;-60
2022/04/18 00:17:00;;;;;;;0.20;0.20;;;;;;;-1.02;43.46;99071.88;5078645;28;20414;-60
2022/04/18 00:19:26;;;;;;;0.20;0.20;;;;;;;-1.03;43.57;99076.44;5106608;28;20508;-60
2022/04/18 00:21:51;;;;;;;0.40;0.40;;;;;;;-1.02;43.48;99071.88;5091270;28;20044;-62
2022/04/18 00:24:20;;;;;;;1.67;0.40;;;;;;;-1.02;43.57;99071.88;5106788;28;20028;-61
2022/04/18 00:26:47;;;;;;;0.40;0.40;;;;;;;-1.00;43.41;99075.25;5090989;28;20068;-61
2022/04/18 00:29:13;;;;;;;0.30;0.30;;;;;;;-0.99;43.32;99067.03;5091137;28;20071;-61
2022/04/18 00:31:39;;;;;;;0.30;0.30;;;;;;;-0.95;43.23;99072.97;5091255;28;20409;-60
2022/04/18 00:34:05;;;;;;;0.40;0.40;;;;;;;-0.93;43.28;99073.66;5091340;28;20119;-61
2022/04/18 00:36:32;;;;;;;0.20;0.20;;;;;;;-0.92;43.19;99075.34;5089120;28;20036;-62
2022/04/18 00:38:58;;;;;;;0.20;0.20;;;;;;;-0.86;43.24;99071.19;5091220;28;20089;-60
2022/04/18 00:41:24;;;;;;;0.30;0.30;;;;;;;-0.82;43.08;99067.19;5091383;28;20040;-61
2022/04/18 00:43:50;;;;;;;0.35;0.35;;;;;;;-0.72;42.88;99078.75;5091167;28;20032;-60
2022/04/18 00:46:18;;;;;;;0.30;0.30;;;;;;;-0.65;42.78;99070.84;5092763;28;20093;-60
2022/04/18 00:48:46;;;;;;;0.28;0.28;;;;;;;-0.58;42.66;99074.63;5094547;28;20043;-61
2022/04/18 00:51:14;;;;;;;0.40;0.40;;;;;;;-0.51;42.55;99081.09;5094595;28;20035;-61
2022/04/18 00:53:41;;;;;;;0.30;0.30;;;;;;;-0.47;42.47;99082.47;5094624;28;20032;-63
2022/04/18 00:56:09;;;;;;;0.30;0.30;;;;;;;-0.45;42.40;99080.44;5094636;28;20060;-61
2022/04/18 00:58:36;;;;;;;0.22;0.22;;;;;;;-0.41;42.41;99084.53;5095163;28;20039;-60
2022/04/18 01:01:02;;;;;;;0.30;0.30;;;;;;;-0.38;42.33;99075.28;5094035;28;20035;-63
2022/04/18 01:03:30;;;;;;;0.30;0.30;;;;;;;-0.32;42.22;99085.44;5094292;28;20114;-60
2022/04/18 01:06:00;;;;;;;0.30;0.30;;;;;;;-0.27;42.14;99076.88;5093596;28;20047;-62
2022/04/18 01:08:33;;;;;;;0.30;0.30;;;;;;;-0.21;42.14;99078.91;5094459;28;20390;-61
2022/04/18 01:10:59;;;;;;;0.20;0.20;;;;;;;-0.16;42.01;99083.84;5085494;28;20040;-60
2022/04/18 01:13:26;;;;;;;0.30;0.30;;;;;;;-0.12;41.97;99079.81;5109816;28;20078;-60
2022/04/18 01:15:53;;;;;;;0.30;0.30;;;;;;;-0.05;41.85;99087.13;5093973;28;20122;-59
2022/04/18 01:18:19;;;;;;;0.32;0.32;;;;;;;0.03;41.82;99085.47;5094213;28;20028;-61
2022/04/18 01:20:45;;;;;;;0.20;0.20;;;;;;;0.09;41.62;99082.97;5094114;28;20047;-62
2022/04/18 01:23:11;;;;;;;0.30;0.30;;;;;;;0.15;41.67;99092.31;5094207;28;20031;-61
2022/04/18 01:31:05;;;;;;;0.30;0.30;;;;;;;0.39;41.26;99090.72;5093695;28;20071;-61
2022/04/18 01:33:30;;;;;;;0.20;0.20;;;;;;;0.44;41.38;99091.06;5090985;28;20120;-61
2022/04/18 01:35:56;;;;;;;0.30;0.30;;;;;;;0.54;41.34;99091.78;5098276;28;20491;-62
2022/04/18 01:38:23;;;;;;;0.30;0.30;;;;;;;0.66;41.02;99090.47;5087328;28;20044;-61
2022/04/18 01:40:48;;;;;;;0.30;0.30;;;;;;;0.80;40.90;99090.84;5089225;28;20456;-60
2022/04/18 01:43:14;;;;;;;0.30;0.30;;;;;;;0.96;40.84;99085.47;5081696;28;20040;-60
2022/04/18 01:45:40;;;;;;;0.22;0.22;;;;;;;2.25;39.09;99077.56;5098808;28;20039;-59
2022/04/18 01:48:06;;;;;;;0.30;0.30;;;;;;;4.74;35.76;99073.44;5081009;28;20028;-61
2022/04/18 01:50:32;;;;;;;0.30;0.30;;;;;;;7.06;32.88;99071.84;5084443;28;20418;-60
2022/04/18 01:52:57;;;;;;;0.32;0.32;;;;;;;8.78;31.24;99065.69;5100422;28;20051;-62
2022/04/18 01:55:24;;;;;;;0.28;0.28;;;;;;;10.09;30.25;99068.81;5080765;28;20039;-60
2022/04/18 01:57:49;;;;;;;0.20;0.20;;;;;;;11.29;29.60;99063.00;5092135;28;20032;-61
2022/04/18 02:00:15;;;;;;;0.30;0.30;;;;;;;12.23;29.33;99068.72;5093358;28;20501;-61
2022/04/18 02:02:41;;;;;;;0.20;0.20;;;;;;;13.08;29.07;99069.16;5093101;28;20304;-60
2022/04/18 02:05:08;;;;;;;0.30;0.30;;;;;;;13.73;28.82;99069.00;5092915;28;20036;-61
2022/04/18 02:07:34;;;;;;;0.20;0.20;;;;;;;14.40;28.57;99067.28;5076724;28;20048;-62
2022/04/18 02:10:00;;;;;;;0.40;0.40;;;;;;;15.78;27.92;99065.41;5106737;28;20032;-61
2022/04/18 02:12:25;;;;;;;0.20;0.20;;;;;;;16.46;27.59;99065.66;5092481;28;20042;-60
2022/04/18 02:14:51;;;;;;;0.20;0.20;;;;;;;16.99;27.51;99062.09;5092144;28;20058;-62
2022/04/18 02:17:17;;;;;;;0.20;0.20;;;;;;;17.14;27.85;99070.47;5092919;28;20043;-62
2022/04/18 02:19:44;;;;;;;0.20;0.20;;;;;;;17.26;28.23;99069.41;5092990;28;20040;-65
2022/04/18 02:22:10;;;;;;;0.20;0.20;;;;;;;17.71;28.22;99067.84;5091086;28;20111;-64
2022/04/18 02:24:36;;;;;;;0.10;0.10;;;;;;;17.82;28.28;99066.72;5089628;28;20043;-63
2022/04/18 02:27:02;;;;;;;0.10;0.10;;;;;;;18.32;28.07;99066.22;5085455;28;20059;-64
2022/04/18 02:29:28;;;;;;;0.20;0.20;;;;;;;18.93;28.09;99068.03;5087958;28;20039;-61
2022/04/18 02:34:37;;;;;;;0.10;0.10;;;;;;;20.64;26.64;99060.13;5072668;28;20059;-61
2022/04/18 02:37:04;;;;;;;0.20;0.20;;;;;;;21.09;26.50;99049.59;5073008;28;20076;-61
2022/04/18 02:39:30;;;;;;;0.10;0.10;;;;;;;22.11;25.49;99056.81;5073079;28;20038;-61
2022/04/18 02:41:57;;;;;;;0.20;0.20;;;;;;;22.34;25.79;99064.25;5081826;28;20032;-61
2022/04/18 02:44:23;;;;;;;0.10;0.10;;;;;;;22.85;25.56;99056.03;5093073;28;20546;-62
2022/04/18 02:46:49;;;;;;;0.22;0.22;;;;;;;23.67;25.17;99053.47;5092152;28;20044;-61
2022/04/18 02:49:15;;;;;;;0.15;0.15;;;;;;;24.71;24.11;99064.66;5093209;28;20130;-60
2022/04/18 02:51:41;;;;;;;0.10;0.10;;;;;;;24.71;24.61;99061.03;5092790;28;20032;-61
2022/04/18 02:54:07;;;;;;;0.20;0.20;;;;;;;26.00;23.58;99060.84;5092654;28;20032;-61
2022/04/18 02:56:33;;;;;;;0.10;0.10;;;;;;;26.80;23.44;99060.38;5092684;28;20110;-60
2022/04/18 02:58:58;;;;;;;0.95;0.65;;;;;;;27.00;23.58;99067.25;5093156;28;20055;-60
2022/04/18 03:01:24;;;;;;;0.10;0.10;;;;;;;26.19;24.22;99075.41;5092698;28;20032;-61
2022/04/18 03:03:50;;;;;;;0.28;0.28;;;;;;;24.85;25.52;99067.34;5092946;28;20036;-62
2022/04/18 03:06:16;;;;;;;0.10;0.10;;;;;;;25.05;25.46;99057.50;5092141;28;20028;-60
2022/04/18 03:08:41;;;;;;;0.20;0.20;;;;;;;25.60;25.36;99056.16;5092304;28;20077;-61
2022/04/18 03:11:07;;;;;;;0.20;0.20;;;;;;;25.62;24.93;99053.03;5092434;28;20077;-61
2022/04/18 03:13:35;;;;;;;0.10;0.10;;;;;;;24.59;25.85;99044.78;5092664;28;20035;-61
2022/04/18 03:16:01;;;;;;;0.20;0.20;;;;;;;24.20;26.33;99049.13;5092728;28;20116;-61
2022/04/18 03:18:28;;;;;;;0.10;0.10;;;;;;;24.45;25.66;99051.25;5092774;28;20047;-61
2022/04/18 03:20:54;;;;;;;0.10;0.10;;;;;;;24.74;25.36;99051.94;5092476;28;20035;-61
2022/04/18 03:23:20;;;;;;;0.10;0.10;;;;;;;24.17;25.74;99049.78;5092357;28;20407;-62
2022/04/18 03:25:46;;;;;;;0.10;0.10;;;;;;;22.95;27.02;99055.81;5092722;28;20032;-61
2022/04/18 03:28:14;;;;;;;0.10;0.10;;;;;;;22.75;26.86;99062.69;5090868;28;20055;-63
2022/04/18 03:30:40;;;;;;;0.10;0.10;;;;;;;22.82;26.91;99063.09;5092275;28;20052;-62
2022/04/18 03:33:06;;;;;;;0.10;0.10;;;;;;;24.34;25.17;99066.72;5092467;28;20120;-61
2022/04/18 03:35:32;;;;;;;0.10;0.10;;;;;;;24.59;24.57;99061.63;5092242;28;20401;-62
2022/04/18 03:40:42;;;;;;;0.10;0.10;;;;;;;25.00;24.67;99050.06;5092571;28;20131;-62
2022/04/18 03:43:08;;;;;;;0.20;0.20;;;;;;;25.50;24.23;99060.13;5092467;28;20127;-61
2022/04/18 03:45:33;;;;;;;0.20;0.20;;;;;;;25.71;23.56;99063.13;5092206;28;20043;-64
2022/04/18 03:47:59;;;;;;;0.10;0.10;;;;;;;23.65;25.40;99045.38;5090655;28;20395;-61
2022/04/18 03:50:25;;;;;;;0.10;0.10;;;;;;;23.39;26.13;99050.72;5090966;28;20130;-61
2022/04/18 03:52:52;;;;;;;0.10;0.10;;;;;;;24.09;24.73;99046.59;5092198;28;20490;-61
2022/04/18 03:55:18;;;;;;;0.20;0.20;;;;;;;24.40;24.72;99047.78;5107697;28;20032;-60
2022/04/18 03:57:47;;;;;;;0.20;0.20;;;;;;;25.24;23.87;99056.41;5108150;28;20038;-62
2022/04/18 04:00:15;;;;;;;0.10;0.10;;;;;;;24.96;23.67;99048.22;5090678;28;20186;-62
2022/04/18 04:02:43;;;;;;;0.10;0.10;;;;;;;23.86;24.81;99040.13;5092179;28;20040;-61
2022/04/18 04:05:08;;;;;;;0.20;0.20;;;;;;;22.97;25.18;99047.97;5089036;28;20478;-64
2022/04/18 04:07:34;;;;;;;0.10;0.10;;;;;;;22.74;25.53;99045.03;5090112;28;20035;-61
2022/04/18 04:10:00;;;;;;;0.10;0.10;;;;;;;22.81;25.49;99039.03;5090125;28;20032;-63
2022/04/18 04:12:30;;;;;;;0.10;0.10;;;;;;;23.04;25.12;99030.72;5090315;28;20514;-63
2022/04/18 04:14:56;;;;;;;0.20;0.20;;;;;;;23.26;24.72;99041.19;5085535;28;20035;-61
2022/04/18 04:17:22;;;;;;;0.10;0.10;;;;;;;23.24;24.55;99038.72;5089954;28;20040;-61
2022/04/18 04:19:49;;;;;;;0.10;0.10;;;;;;;23.11;24.79;99036.75;5093469;28;20036;-61
2022/04/18 04:22:15;;;;;;;0.10;0.10;;;;;;;22.67;24.72;99030.66;5093571;28;20421;-62
2022/04/18 04:24:40;;;;;;;0.10;0.10;;;;;;;22.48;25.11;99035.47;5094232;28;20039;-61
2022/04/18 04:27:06;;;;;;;0.20;0.20;;;;;;;23.20;24.62;99034.91;5092004;28;20052;-60
2022/04/18 04:29:32;;;;;;;0.17;0.17;;;;;;;23.72;23.74;99040.16;5093591;28;20040;-61
2022/04/18 04:31:58;;;;;;;0.20;0.20;;;;;;;24.96;22.71;99046.25;5094997;28;20165;-59
2022/04/18 04:34:24;;;;;;;0.10;0.10;;;;;;;25.19;22.25;99040.50;5095006;28;20036;-64
2022/04/18 04:36:49;;;;;;;0.10;0.10;;;;;;;23.01;24.44;99036.94;5095793;28;20490;-60
2022/04/18 04:39:17;;;;;;;0.10;0.10;;;;;;;19.85;27.27;99046.38;5095776;28;20032;-61
2022/04/18 04:41:43;;;;;;;0.10;0.10;;;;;;;17.15;29.65;99044.41;5094439;28;20028;-60
2022/04/18 04:44:08;;;;;;;3.72;0.38;;;;;;;14.83;31.86;99060.19;5095387;28;20078;-60
2022/04/18 04:46:35;;;;;;;0.10;0.10;;;;;;;13.20;33.60;99049.81;5095407;28;20529;-62
2022/04/18 04:49:02;;;;;;;0.10;0.10;;;;;;;12.25;33.61;99054.72;5095442;28;20028;-61
2022/04/18 04:51:28;;;;;;;0.40;0.40;;;;;;;11.66;33.55;99057.34;5095339;28;20032;-62
2022/04/18 04:53:54;;;;;;;0.20;0.20;;;;;;;11.19;33.21;99047.91;5094309;28;20479;-61
2022/04/18 04:56:21;;;;;;;0.20;0.20;;;;;;;11.32;32.32;99059.78;5095510;28;20113;-62
2022/04/18 04:58:47;;;;;;;0.17;0.17;;;;;;;11.40;31.77;99052.03;5094285;28;20061;-62
2022/04/18 05:01:13;;;;;;;0.17;0.17;;;;;;;11.30;31.03;99065.50;5095024;28;20063;-62
2022/04/18 05:03:39;;;;;;;0.20;0.20;;;;;;;11.08;31.10;99061.59;5095145;28;20119;-62
2022/04/18 05:06:06;;;;;;;0.10;0.10;;;;;;;11.36;30.36;99053.56;5094917;28;20466;-61
2022/04/18 05:08:33;;;;;;;0.20;0.20;;;;;;;11.50;29.79;99056.97;5095043;28;20036;-64
2022/04/18 05:11:01;;;;;;;0.10;0.10;;;;;;;11.01;29.87;99056.19;5094986;28;20070;-62
2022/04/18 05:13:27;;;;;;;0.20;0.20;;;;;;;10.40;30.58;99061.56;5094945;28;20379;-61
2022/04/18 05:15:52;;;;;;;0.20;0.20;;;;;;;10.05;30.56;99067.56;5095167;28;20036;-60
2022/04/18 05:18:18;;;;;;;0.20;0.20;;;;;;;9.71;30.85;99064.28;5094887;28;20047;-61
2022/04/18 05:20:47;;;;;;;0.57;0.57;;;;;;;9.74;30.49;99069.31;5110629;28;20067;-65
2022/04/18 05:23:17;;;;;;;0.20;0.20;;;;;;;9.81;30.10;99059.13;5094801;28;20062;-62
2022/04/18 05:25:44;;;;;;;0.20;0.20;;;;;;;10.09;29.60;99059.75;5111074;28;20028;-64
2022/04/18 05:28:13;;;;;;;0.30;0.30;;;;;;;10.18;29.26;99055.63;5110202;28;20461;-60
2022/04/18 05:30:40;;;;;;;0.40;0.40;;;;;;;10.63;28.46;99055.41;5109821;28;20059;-64
2022/04/18 05:33:09;;;;;;;0.20;0.20;;;;;;;10.53;28.53;99055.09;5094829;28;20028;-61
2022/04/18 05:35:35;;;;;;;0.20;0.20;;;;;;;10.69;28.23;99054.47;5094317;28;20032;-60
2022/04/18 05:38:00;;;;;;;0.20;0.20;;;;;;;10.70;28.21;99049.81;5110333;28;20089;-61
2022/04/18 05:40:27;;;;;;;0.20;0.20;;;;;;;10.20;28.77;99056.22;5094848;28;20063;-61
2022/04/18 05:42:54;;;;;;;1.90;0.32;;;;;;;9.93;29.10;99052.91;5094426;28;20036;-60
2022/04/18 05:45:20;;;;;;;0.30;0.30;;;;;;;10.14;28.64;99054.41;5094327;28;20039;-62
2022/04/18 05:47:46;;;;;;;0.20;0.20;;;;;;;10.51;28.23;99055.31;5094623;28;20040;-62
2022/04/18 05:50:12;;;;;;;0.60;0.30;;;;;;;10.80;28.01;99046.53;5094787;28;20043;-61
2022/04/18 05:52:38;;;;;;;0.20;0.20;;;;;;;10.87;27.81;99050.84;5094657;28;20486;-61
2022/04/18 05:55:05;;;;;;;0.20;0.20;;;;;;;10.87;27.62;99045.38;5094365;28;20040;-60
2022/04/18 05:57:31;;;;;;;0.20;0.20;;;;;;;10.83;27.73;99055.13;5110065;28;20535;-61
2022/04/18 05:59:56;;;;;;;0.20;0.20;;;;;;;10.54;28.04;99045.78;5093220;28;20039;-63
2022/04/18 06:02:22;;;;;;;0.17;0.17;;;;;;;10.45;28.05;99047.16;5094424;28;20393;-61
2022/04/18 06:04:48;;;;;;;0.20;0.20;;;;;;;10.32;28.27;99048.09;5093705;28;20398;-63
2022/04/18 06:07:15;;;;;;;0.20;0.20;;;;;;;10.36;28.30;99054.00;5095420;28;20189;-62
2022/04/18 06:09:41;;;;;;;0.20;0.20;;;;;;;10.17;28.24;99045.72;5094582;28;20070;-62
2022/04/18 06:12:07;;;;;;;0.20;0.20;;;;;;;9.92;28.55;99048.50;5093666;28;20067;-61
2022/04/18 06:14:33;;;;;;;0.20;0.20;;;;;;;9.86;28.65;99052.97;5093779;28;20039;-63
2022/04/18 06:16:58;;;;;;;0.20;0.20;;;;;;;9.55;28.89;99051.13;5093857;28;20032;-61
2022/04/18 06:19:24;;;;;;;0.20;0.20;;;;;;;9.49;28.93;99049.28;5093918;28;20119;-61
2022/04/18 06:21:49;;;;;;;0.20;0.20;;;;;;;9.26;29.11;99045.19;5106413;28;20070;-60
2022/04/18 06:24:16;;;;;;;0.20;0.20;;;;;;;9.40;28.83;99041.31;5093187;28;20450;-59
2022/04/18 06:26:41;;;;;;;0.20;0.20;;;;;;;9.38;28.92;99048.91;5093049;28;20056;-62
2022/04/18 06:29:07;;;;;;;0.20;0.20;;;;;;;9.19;29.19;99050.72;5093243;28;20065;-61
2022/04/18 06:31:33;;;;;;;1.15;0.57;;;;;;;9.06;29.17;99051.63;5093404;28;20043;-61
2022/04/18 06:33:58;;;;;;;0.20;0.20;;;;;;;8.99;29.22;99047.25;5092561;28;20044;-61
2022/04/18 06:36:24;;;;;;;0.20;0.20;;;;;;;9.03;29.12;99051.25;5093071;28;20039;-63
2022/04/18 06:38:50;;;;;;;0.55;0.40;;;;;;;9.17;28.85;99046.50;5093437;28;20497;-59
2022/04/18 06:41:15;;;;;;;0.30;0.30;;;;;;;9.33;28.62;99051.47;5093191;28;20032;-62
2022/04/18 06:43:41;;;;;;;0.20;0.20;;;;;;;9.29;28.77;99044.78;5101380;28;20115;-60
2022/04/18 06:46:07;;;;;;;0.20;0.20;;;;;;;9.45;28.51;99040.63;5092031;28;20044;-62
2022/04/18 06:48:32;;;;;;;0.22;0.22;;;;;;;9.69;28.30;99036.25;5093129;28;20036;-60
2022/04/18 06:50:59;;;;;;;0.20;0.20;;;;;;;9.80;28.09;99035.53;5093256;28;20115;-61
2022/04/18 06:53:24;;;;;;;0.20;0.20;;;;;;;9.68;28.26;99037.31;5093061;28;20031;-62
2022/04/18 06:58:34;;;;;;;0.20;0.20;;;;;;;9.54;28.53;99017.41;5093223;28;20123;-60
2022/04/18 07:01:01;;;;;;;0.20;0.20;;;;;;;9.62;28.51;99028.06;5093403;28;20115;-62
2022/04/18 07:03:27;;;;;;;0.20;0.20;;;;;;;9.85;28.19;99028.50;5093277;28;20039;-61
2022/04/18 07:05:53;;;;;;;0.30;0.30;;;;;;;9.98;28.26;99037.47;5092391;28;20067;-63
2022/04/18 07:08:18;;;;;;;0.20;0.20;;;;;;;9.73;28.63;99025.66;5093311;28;20055;-64
2022/04/18 07:10:44;;;;;;;0.20;0.20;;;;;;;9.70;28.57;99024.22;5091682;28;20036;-62
2022/04/18 07:13:10;;;;;;;0.20;0.20;;;;;;;9.71;28.55;99027.78;5108772;28;20024;-63
2022/04/18 07:15:36;;;;;;;0.20;0.20;;;;;;;9.54;28.82;99030.25;5093340;28;20111;-61
2022/04/18 07:18:01;;;;;;;0.20;0.20;;;;;;;9.40;29.05;99018.56;5108521;28;20118;-63
2022/04/18 07:20:28;;;;;;;0.20;0.20;;;;;;;9.46;28.98;99012.16;5091333;28;20032;-62
2022/04/18 07:22:55;;;;;;;0.20;0.20;;;;;;;9.61;28.62;99014.56;5091715;28;20035;-61
2022/04/18 07:25:20;;;;;;;0.30;0.30;;;;;;;9.72;28.64;99016.59;5093206;28;20036;-62
2022/04/18 07:27:46;;;;;;;0.20;0.20;;;;;;;9.86;28.35;99013.75;5092765;28;20520;-63
2022/04/18 07:30:12;;;;;;;0.30;0.30;;;;;;;9.75;28.59;99013.41;5092906;28;20039;-62
2022/04/18 07:32:39;;;;;;;0.20;0.20;;;;;;;9.99;28.33;99000.72;5093103;28;20034;-64
2022/04/18 07:35:06;;;;;;;0.20;0.20;;;;;;;10.37;28.12;99009.03;5090594;28;20059;-61
2022/04/18 07:37:32;;;;;;;0.20;0.20;;;;;;;10.64;27.82;99010.38;5092525;28;20036;-60
2022/04/18 07:39:57;;;;;;;0.30;0.30;;;;;;;10.57;28.08;99006.03;5092667;28;20110;-60
2022/04/18 07:42:23;;;;;;;0.20;0.20;;;;;;;10.44;28.13;99009.81;5108088;28;20039;-61
2022/04/18 07:44:49;;;;;;;0.20;0.20;;;;;;;10.56;28.22;99009.88;5092587;28;20032;-61
2022/04/18 07:47:15;;;;;;;0.20;0.20;;;;;;;10.55;28.31;99008.19;5092082;28;20070;-62
2022/04/18 07:49:41;;;;;;;0.20;0.20;;;;;;;10.27;28.74;98998.53;5091093;28;20040;-61
2022/04/18 07:52:08;;;;;;;0.40;0.40;;;;;;;10.24;28.95;99001.75;5092428;28;20035;-66
2022/04/18 07:54:35;;;;;;;1.45;0.35;;;;;;;10.34;28.89;98996.59;5094262;28;20036;-61
2022/04/18 07:57:01;;;;;;;0.20;0.20;;;;;;;10.57;28.54;98992.31;5096380;28;20043;-62
2022/04/18 07:59:27;;;;;;;0.20;0.20;;;;;;;10.71;28.42;99002.06;5096517;28;20036;-61
2022/04/18 08:01:53;;;;;;;0.52;0.52;;;;;;;10.82;28.58;99003.19;5096310;28;20097;-62
2022/04/18 08:04:19;;;;;;;0.30;0.30;;;;;;;10.88;28.36;98994.03;5095778;28;20032;-62
2022/04/18 08:06:44;;;;;;;0.30;0.30;;;;;;;11.05;28.24;98996.94;5096190;28;20055;-61
2022/04/18 08:09:10;;;;;;;0.20;0.20;;;;;;;11.15;28.24;98997.22;5096487;28;20568;-60
2022/04/18 08:11:36;;;;;;;0.40;0.40;;;;;;;11.21;28.46;98995.44;5096054;28;20032;-63
2022/04/18 08:14:02;;;;;;;0.30;0.30;;;;;;;11.03;28.46;98993.59;5096376;28;20042;-60
2022/04/18 08:16:28;;;;;;;0.40;0.40;;;;;;;10.93;28.87;98990.59;5095779;28;20402;-60
2022/04/18 08:18:55;;;;;;;0.30;0.30;;;;;;;11.14;28.57;98990.03;5095724;28;20478;-60
2022/04/18 08:21:21;;;;;;;0.20;0.20;;;;;;;11.30;28.51;98988.53;5094668;28;20035;-62
2022/04/18 08:23:48;;;;;;;0.30;0.30;;;;;;;11.36;28.56;98986.75;5095843;28;20111;-61
2022/04/18 08:26:15;;;;;;;0.20;0.20;;;;;;;11.50;28.42;98984.66;5095881;28;20043;-60
2022/04/18 08:28:41;;;;;;;0.20;0.20;;;;;;;11.73;28.35;98975.56;5095557;28;20105;-63
2022/04/18 08:31:08;;;;;;;0.47;0.47;;;;;;;12.06;28.11;98974.19;5111751;28;20032;-60
2022/04/18 08:33:34;;;;;;;0.30;0.30;;;;;;;12.22;27.82;98973.44;5095295;28;20063;-63
2022/04/18 08:36:00;;;;;;;0.20;0.20;;;;;;;12.28;28.04;98977.13;5102568;28;20070;-61
2022/04/18 08:38:26;;;;;;;0.95;0.77;;;;;;;12.06;28.31;98968.66;5115182;28;20080;-61
2022/04/18 08:40:56;;;;;;;0.65;0.65;;;;;;;11.86;28.44;98966.25;5114872;28;20446;-63
2022/04/18 08:43:22;;;;;;;0.20;0.20;;;;;;;11.89;28.66;98969.34;5115211;28;20036;-62
2022/04/18 08:45:49;;;;;;;0.20;0.20;;;;;;;12.01;28.54;98961.09;5115121;28;20040;-61
2022/04/18 08:54:26;;;;;;;0.28;0.28;;;;;;;11.30;29.42;98949.22;5115111;28;20532;-60
2022/04/18 08:56:53;;;;;;;0.20;0.20;;;;;;;11.48;29.52;98967.53;5098578;28;20042;-61
2022/04/18 08:59:19;;;;;;;0.47;0.30;;;;;;;11.49;29.31;98966.47;5095020;28;20027;-60
2022/04/18 09:09:17;;;;;;;0.35;0.35;;;;;;;11.38;29.36;98946.09;5091230;28;20081;-60
2022/04/18 09:12:23;;;;;;;0.95;0.55;;;;;;;11.43;29.44;98962.75;5088941;28;20032;-63
2022/04/18 09:15:09;;;;;;;;;;;;;;;11.05;29.77;98958.47;5087754;28;20044;-62
2022/04/18 09:20:58;;;;;;;0.20;0.20;;;;;;;11.29;29.55;98942.03;5087400;28;20436;-64
2022/04/18 09:23:32;;;;;;;0.10;0.10;;;;;;;11.22;29.65;98951.25;5090484;28;20393;-62
2022/04/18 09:26:08;;;;;;;0.30;0.30;;;;;;;10.76;30.15;98952.78;5093333;28;20040;-66
2022/04/18 09:28:42;;;;;;;0.80;0.65;;;;;;;10.26;30.94;98947.47;5091465;28;20456;-66
2022/04/18 09:31:10;;;;;;;0.20;0.20;;;;;;;9.99;31.31;98939.53;5094033;28;20027;-68
2022/04/18 09:33:38;;;;;;;0.20;0.20;;;;;;;9.76;31.41;98927.34;5091395;28;20036;-61
2022/04/18 09:36:21;;;;;;;0.20;0.20;;;;;;;9.72;31.46;98934.34;5089266;28;20034;-62
2022/04/18 09:38:55;;;;;;;0.20;0.20;;;;;;;9.74;31.25;98934.13;5092070;28;20481;-62
2022/04/18 09:41:23;;;;;;;0.20;0.20;;;;;;;9.89;31.02;98928.25;5093215;28;20044;-61
2022/04/18 09:43:52;;;;;;;2.85;0.28;;;;;;;9.86;31.04;98928.72;5089803;28;20043;-64
2022/04/18 09:46:20;;;;;;;0.30;0.30;;;;;;;9.56;31.33;98924.78;5088017;28;20044;-61
2022/04/18 09:48:48;;;;;;;0.43;0.43;;;;;;;9.24;31.65;98926.75;5088605;28;20054;-61
2022/04/18 09:51:38;;;;;;;0.20;0.20;;;;;;;8.86;31.95;98922.19;5092059;28;20020;-63
2022/04/18 09:54:05;;;;;;;0.22;0.22;;;;;;;8.71;32.20;98917.03;5092518;28;20043;-62
2022/04/18 09:56:30;;;;;;;0.20;0.20;;;;;;;8.84;32.01;98916.13;5094355;28;20028;-62
2022/04/18 09:58:58;;;;;;;0.30;0.30;;;;;;;9.04;31.69;98905.84;5092716;28;20412;-60
2022/04/18 10:01:24;;;;;;;3.25;0.52;;;;;;;9.30;31.41;98901.19;5100398;28;20034;-61
2022/04/18 10:03:52;;;;;;;0.20;0.20;;;;;;;9.60;30.98;98906.00;5101324;28;20032;-65
2022/04/18 10:06:20;;;;;;;0.20;0.20;;;;;;;9.83;30.72;98902.56;5091844;28;20109;-62
2022/04/18 10:08:45;;;;;;;0.20;0.20;;;;;;;9.91;30.73;98899.53;5093798;28;20358;-65
2022/04/18 10:11:11;;;;;;;0.50;0.50;;;;;;;9.99;30.81;98899.22;5084907;28;20117;-65
2022/04/18 10:13:37;;;;;;;0.30;0.30;;;;;;;10.06;30.92;98890.94;5075908;28;20055;-63
2022/04/18 10:16:05;;;;;;;0.20;0.20;;;;;;;10.23;30.62;98901.28;5075979;28;20032;-62
2022/04/18 10:18:37;;;;;;;0.20;0.20;;;;;;;9.99;31.01;98892.91;5089688;28;20044;-61
2022/04/18 10:21:40;;;;;;;0.30;0.30;;;;;;;9.81;31.40;98889.09;5099405;28;20036;-60
2022/04/18 10:24:28;;;;;;;0.55;0.30;;;;;;;9.88;31.13;98886.28;5031107;28;20091;-63
2022/04/18 10:27:17;;;;;;;0.35;0.35;;;;;;;9.92;31.32;98883.91;5098514;28;20493;-63
2022/04/18 10:29:51;;;;;;;0.50;0.50;;;;;;;9.88;31.35;98883.56;5073375;28;20443;-61
2022/04/18 10:32:24;;;;;;;0.20;0.20;;;;;;;9.85;31.53;98883.16;5089465;28;20079;-62
2022/04/18 10:34:51;;;;;;;0.20;0.20;;;;;;;9.70;31.71;98883.53;5095042;28;20044;-62
2022/04/18 10:37:21;;;;;;;0.47;0.47;;;;;;;9.39;32.22;98875.22;5094773;28;20031;-62
2022/04/18 10:39:59;;;;;;;0.20;0.20;;;;;;;9.27;32.47;98871.50;5093486;28;20032;-60
2022/04/18 10:42:30;;;;;;;0.20;0.20;;;;;;;9.32;32.40;98882.66;5093364;28;20020;-61
2022/04/18 10:45:06;;;;;;;0.35;0.35;;;;;;;9.40;32.28;98873.31;5103540;28;20043;-61
2022/04/18 10:48:26;;;;;;;0.30;0.30;;;;;;;9.44;32.33;98863.56;5109137;28;20060;-64
2022/04/18 10:51:29;;;;;;;0.40;0.40;;;;;;;9.37;32.37;98871.00;5072793;28;20040;-61
2022/04/18 10:54:10;;;;;;;0.28;0.28;;;;;;;9.02;32.83;98864.13;5069187;28;20130;-66
2022/04/18 10:57:17;;;;;;;0.50;0.50;;;;;;;8.90;33.25;98854.97;5072018;28;20028;-62
2022/04/18 11:06:36;;;;;;;0.22;0.22;;;;;;;9.14;32.72;98842.34;5096751;28;20090;-62
2022/04/18 11:09:48;;;;;;;0.20;0.20;;;;;;;8.89;33.18;98843.19;5103715;28;20444;-60
2022/04/18 11:19:15;;;;;;;0.82;0.70;;;;;;;8.54;33.83;98846.41;5073775;28;20047;-61
2022/04/18 11:21:56;;;;;;;0.50;0.50;;;;;;;8.74;33.53;98838.03;5085301;28;20036;-60
2022/04/18 11:24:41;;;;;;;0.20;0.20;;;;;;;8.87;33.44;98834.34;5074701;28;20092;-62
2022/04/18 11:27:29;;;;;;;0.50;0.32;;;;;;;8.93;33.49;98833.44;5071305;28;20048;-61
2022/04/18 11:30:03;;;;;;;0.43;0.43;;;;;;;9.06;33.35;98832.50;5070814;28;20063;-62
2022/04/18 11:32:47;;;;;;;0.52;0.52;;;;;;;9.22;33.31;98825.63;5071991;28;20028;-61
2022/04/18 11:35:13;;;;;;;0.60;0.60;;;;;;;9.34;33.38;98831.19;5071103;28;20487;-62
2022/04/18 11:37:46;;;;;;;0.63;0.63;;;;;;;9.47;33.18;98825.56;5107800;28;20045;-64
2022/04/18 11:40:17;;;;;;;0.20;0.20;;;;;;;9.55;33.27;98823.59;5102045;28;20651;-63
2022/04/18 11:42:45;;;;;;;0.73;0.73;;;;;;;9.54;33.25;98822.78;5103920;28;20067;-63
2022/04/18 11:45:23;;;;;;;0.32;0.30;;;;;;;9.50;33.55;98820.72;5101678;28;20442;-61
2022/04/18 11:47:49;;;;;;;0.73;0.40;;;;;;;9.42;33.79;98825.44;5091144;28;20406;-62
2022/04/18 11:50:21;;;;;;;0.60;0.60;;;;;;;9.36;34.02;98823.56;5091184;28;20024;-62
2022/04/18 11:52:49;;;;;;;0.22;0.22;;;;;;;9.39;33.99;98825.88;5091235;28;20063;-61
2022/04/18 11:55:17;;;;;;;0.20;0.20;;;;;;;9.44;34.09;98827.94;5091362;28;20057;-62
2022/04/18 11:57:48;;;;;;;0.30;0.30;;;;;;;9.46;34.21;98815.66;5090319;28;20028;-60
2022/04/18 12:08:51;;;;;;;0.40;0.40;;;;;;;10.19;33.62;98826.81;5045097;28;20037;-63
2022/04/18 12:11:17;;;;;;;0.40;0.40;;;;;;;10.38;33.51;98819.41;5078568;28;20477;-64
2022/04/18 12:13:47;;;;;;;1.73;0.65;;;;;;;10.51;33.64;98816.47;5086027;28;20035;-62
2022/04/18 12:16:17;;;;;;;1.45;1.08;;;;;;;10.44;33.72;98821.22;5087256;28;20027;-62
2022/04/18 12:18:55;;;;;;;0.35;0.35;;;;;;;10.42;34.00;98817.84;5087009;28;20035;-62
2022/04/18 12:21:22;;;;;;;0.63;0.63;;;;;;;10.38;33.93;98813.91;5086681;28;20077;-62
2022/04/18 12:23:56;;;;;;;0.50;0.50;;;;;;;10.29;34.36;98801.53;5091298;28;20043;-61
2022/04/18 12:26:26;;;;;;;0.60;0.60;;;;;;;10.17;34.61;98812.47;5089992;28;20036;-62
2022/04/18 12:28:59;;;;;;;1.27;0.52;;;;;;;10.10;34.85;98809.84;5085777;28;20051;-63
2022/04/18 12:31:25;;;;;;;0.55;0.55;;;;;;;10.02;35.14;98801.09;5086809;28;20169;-62
2022/04/18 12:33:51;;;;;;;1.80;1.02;;;;;;;9.95;35.08;98807.50;5089416;28;20126;-63
2022/04/18 12:36:33;;;;;;;2.72;0.80;;;;;;;9.97;35.06;98804.53;5086972;28;20024;-64